Time;durP1;ratioP1;P1;durP2;ratioP2;P2;SDS_P1;SDS_P2;PMS_P1;PMS_P2;Temp;Humidity;BMP_temperature;BMP_pressure;BME280_temperature;BME280_humidity;BME280_pressure;Samples;Min_cycle;Max_cycle;Signal;HPM_P1;HPM_P2
2023/05/28 00:03:12;;;;;;;9.98;4.70;;;;;13.30;96590.00;;;;8269795;28;20237;-69
2023/05/28 00:07:21;;;;;;;11.57;4.90;;;;;13.30;96588.00;;;;8285716;28;20210;-61
2023/05/28 00:11:24;;;;;;;13.05;4.60;;;;;13.30;96587.00;;;;8288128;28;20318;-62
2023/05/28 00:15:28;;;;;;;11.95;4.85;;;;;13.40;96584.00;;;;8295154;28;21012;-64
2023/05/28 00:19:31;;;;;;;14.52;5.13;;;;;13.30;96581.00;;;;8297363;28;20690;-63
2023/05/28 00:23:40;;;;;;;12.60;5.00;;;;;13.30;96583.00;;;;8292124;28;20209;-65
2023/05/28 00:27:44;;;;;;;12.15;4.60;;;;;13.30;96577.00;;;;8291892;28;20644;-64
2023/05/28 00:31:51;;;;;;;12.68;4.78;;;;;13.30;96572.00;;;;8289493;28;20657;-63
2023/05/28 00:35:55;;;;;;;12.45;4.13;;;;;13.20;96571.00;;;;8299493;28;20205;-65
2023/05/28 00:40:06;;;;;;;10.88;4.18;;;;;13.20;96577.00;;;;8289448;28;20252;-64
2023/05/28 00:44:11;;;;;;;10.48;4.70;;;;;13.10;96566.00;;;;8309724;28;20296;-62
2023/05/28 00:48:14;;;;;;;11.20;4.63;;;;;13.00;96565.00;;;;8296533;28;20205;-66
2023/05/28 00:52:17;;;;;;;12.48;5.00;;;;;12.70;96566.00;;;;8300450;28;20242;-67
2023/05/28 00:56:24;;;;;;;11.95;4.63;;;;;12.50;96560.00;;;;8293125;28;20206;-63
2023/05/28 01:00:28;;;;;;;16.08;4.68;;;;;12.20;96563.00;;;;8304098;28;20234;-65
2023/05/28 01:04:32;;;;;;;9.55;4.35;;;;;12.10;96560.00;;;;8299692;28;20353;-66
2023/05/28 01:08:36;;;;;;;13.05;5.13;;;;;11.90;96560.00;;;;8274127;28;20234;-64
2023/05/28 01:12:43;;;;;;;9.18;4.80;;;;;11.80;96561.00;;;;8302670;28;20235;-68
2023/05/28 01:16:48;;;;;;;10.05;4.30;;;;;11.70;96562.00;;;;8303251;28;20855;-61
2023/05/28 01:20:51;;;;;;;7.32;3.85;;;;;11.80;96554.00;;;;8301072;28;20286;-64
2023/05/28 01:24:57;;;;;;;13.68;4.55;;;;;11.90;96556.00;;;;8284704;28;20206;-63
2023/05/28 01:29:04;;;;;;;9.70;4.70;;;;;11.90;96556.00;;;;8282729;28;20211;-68
2023/05/28 01:33:07;;;;;;;9.80;4.82;;;;;12.00;96556.00;;;;8286050;28;20235;-62
2023/05/28 01:37:16;;;;;;;8.93;4.00;;;;;11.90;96552.00;;;;8302577;28;20289;-66
2023/05/28 01:41:21;;;;;;;8.60;4.57;;;;;11.80;96553.00;;;;8300198;28;20559;-61
2023/05/28 01:45:25;;;;;;;16.27;4.45;;;;;11.70;96549.00;;;;8300772;28;20656;-62
2023/05/28 01:49:29;;;;;;;15.95;5.07;;;;;11.50;96544.00;;;;8298534;28;20217;-62
2023/05/28 01:53:32;;;;;;;14.15;5.03;;;;;11.40;96551.00;;;;8305769;28;20233;-65
2023/05/28 01:57:40;;;;;;;17.25;5.57;;;;;11.20;96546.00;;;;8296244;28;20217;-61
2023/05/28 02:01:43;;;;;;;12.95;5.10;;;;;11.20;96551.00;;;;8307008;28;20211;-63
2023/05/28 02:05:49;;;;;;;14.20;5.40;;;;;11.30;96544.00;;;;8312058;28;20234;-64
2023/05/28 02:09:56;;;;;;;10.10;4.57;;;;;11.50;96551.00;;;;8306887;28;20599;-64
2023/05/28 02:14:03;;;;;;;16.75;4.72;;;;;11.40;96540.00;;;;8303452;28;20241;-64
2023/05/28 02:18:10;;;;;;;14.53;4.67;;;;;11.40;96538.00;;;;8304373;28;20212;-67
2023/05/28 02:22:13;;;;;;;9.18;4.43;;;;;11.50;96538.00;;;;8301844;28;20226;-63
2023/05/28 02:26:22;;;;;;;7.60;4.38;;;;;11.40;96529.00;;;;8305302;28;20285;-67
2023/05/28 02:30:27;;;;;;;9.77;4.65;;;;;11.40;96530.00;;;;8294570;28;20207;-61
2023/05/28 02:34:35;;;;;;;13.95;4.93;;;;;11.50;96533.00;;;;8299103;28;20228;-63
2023/05/28 02:38:38;;;;;;;11.95;4.45;;;;;11.70;96533.00;;;;8299895;28;20316;-68
2023/05/28 02:42:41;;;;;;;11.57;4.85;;;;;11.80;96530.00;;;;8305052;28;20289;-65
2023/05/28 02:46:47;;;;;;;7.72;4.35;;;;;11.70;96532.00;;;;8309141;28;20216;-65
2023/05/28 02:50:55;;;;;;;10.10;4.53;;;;;11.40;96518.00;;;;8308410;28;20237;-66
2023/05/28 02:55:00;;;;;;;10.00;4.45;;;;;11.10;96522.00;;;;8295609;28;20321;-65
2023/05/28 02:59:04;;;;;;;12.88;5.35;;;;;10.80;96514.00;;;;8296378;28;20218;-62
2023/05/28 03:03:13;;;;;;;13.07;4.88;;;;;10.60;96522.00;;;;8298266;23;20241;-60
2023/05/28 03:07:16;;;;;;;8.55;4.30;;;;;10.60;96529.00;;;;8246400;28;20211;-65
2023/05/28 03:11:19;;;;;;;10.65;4.53;;;;;10.50;96527.00;;;;8248134;28;20204;-62
2023/05/28 03:15:26;;;;;;;15.07;4.17;;;;;10.20;96533.00;;;;8251548;28;20838;-68
2023/05/28 03:19:36;;;;;;;15.47;6.43;;;;;9.90;96525.00;;;;8251755;28;20825;-62
2023/05/28 03:23:41;;;;;;;12.75;5.07;;;;;9.60;96530.00;;;;8253234;28;20676;-68
2023/05/28 03:27:47;;;;;;;8.10;4.37;;;;;9.40;96528.00;;;;8250309;28;20290;-62
2023/05/28 03:31:50;;;;;;;11.73;5.20;;;;;9.30;96528.00;;;;8241975;28;20698;-67
2023/05/28 03:35:56;;;;;;;17.90;5.77;;;;;9.10;96529.00;;;;8250180;28;20202;-64
2023/05/28 03:39:59;;;;;;;11.23;4.70;;;;;9.00;96528.00;;;;8249783;28;20287;-66
2023/05/28 03:44:03;;;;;;;10.70;5.60;;;;;8.90;96523.00;;;;8229450;28;20868;-67
2023/05/28 03:48:09;;;;;;;11.33;5.23;;;;;8.90;96528.00;;;;8248104;28;20974;-65
2023/05/28 03:52:16;;;;;;;14.57;4.90;;;;;8.90;96522.00;;;;8244232;28;20768;-67
2023/05/28 03:56:24;;;;;;;10.93;5.03;;;;;9.00;96522.00;;;;8251947;28;20309;-67
2023/05/28 04:00:31;;;;;;;12.47;5.47;;;;;9.30;96514.00;;;;8245162;28;20206;-70
2023/05/28 04:04:35;;;;;;;12.30;5.47;;;;;9.70;96517.00;;;;8229135;28;20254;-62
2023/05/28 04:08:43;;;;;;;13.53;4.87;;;;;10.10;96510.00;;;;8223628;28;20262;-66
2023/05/28 04:12:48;;;;;;;9.97;4.90;;;;;10.50;96518.00;;;;8230265;28;20235;-62
2023/05/28 04:16:53;;;;;;;16.10;5.23;;;;;10.80;96526.00;;;;8214578;28;20614;-66
2023/05/28 04:20:59;;;;;;;9.80;4.53;;;;;11.20;96527.00;;;;8231339;28;20208;-68
2023/05/28 04:25:06;;;;;;;13.80;5.33;;;;;11.50;96526.00;;;;8227703;28;20215;-64
2023/05/28 04:29:09;;;;;;;19.30;4.90;;;;;11.80;96521.00;;;;8239765;28;20202;-64
2023/05/28 04:33:19;;;;;;;14.70;5.30;;;;;12.20;96524.00;;;;8219927;28;20321;-64
2023/05/28 04:37:24;;;;;;;14.32;4.57;;;;;12.50;96528.00;;;;8235171;28;20293;-64
2023/05/28 04:41:31;;;;;;;11.60;4.35;;;;;13.00;96526.00;;;;8229497;28;20652;-69
2023/05/28 04:45:38;;;;;;;7.70;4.43;;;;;13.30;96526.00;;;;8229792;28;20208;-64
2023/05/28 04:49:45;;;;;;;9.73;4.88;;;;;13.50;96531.00;;;;8227440;28;20309;-65
2023/05/28 04:53:48;;;;;;;12.32;4.63;;;;;13.90;96535.00;;;;8235752;28;20240;-68
2023/05/28 04:57:58;;;;;;;9.43;5.05;;;;;14.30;96536.00;;;;8211453;28;20242;-69
2023/05/28 05:02:01;;;;;;;12.60;5.50;;;;;14.70;96539.00;;;;8214577;28;20243;-65
2023/05/28 05:06:08;;;;;;;8.93;4.75;;;;;15.20;96539.00;;;;8217716;28;20207;-66
2023/05/28 05:10:11;;;;;;;14.10;5.63;;;;;15.50;96534.00;;;;8217329;28;20210;-63
2023/05/28 05:14:16;;;;;;;11.68;5.55;;;;;15.50;96531.00;;;;8223927;28;20230;-63
2023/05/28 05:18:20;;;;;;;21.75;5.97;;;;;15.60;96529.00;;;;8224903;28;20770;-65
2023/05/28 05:22:23;;;;;;;11.65;5.65;;;;;15.60;96529.00;;;;8218372;28;20298;-64
2023/05/28 05:26:26;;;;;;;15.63;5.85;;;;;15.80;96534.00;;;;8255922;28;20211;-67
2023/05/28 05:30:31;;;;;;;15.00;5.78;;;;;15.80;96526.00;;;;8226073;28;20223;-62
2023/05/28 05:34:34;;;;;;;18.65;5.82;;;;;16.00;96535.00;;;;8215906;28;20250;-67
2023/05/28 05:38:37;;;;;;;15.27;5.25;;;;;15.90;96537.00;;;;8221703;28;20226;-67
2023/05/28 05:42:41;;;;;;;17.25;4.82;;;;;15.90;96538.00;;;;8209158;28;20241;-66
2023/05/28 05:46:45;;;;;;;14.25;4.80;;;;;15.80;96539.00;;;;8217103;28;20825;-64
2023/05/28 05:50:54;;;;;;;13.10;4.88;;;;;15.90;96543.00;;;;8226023;28;20286;-66
2023/05/28 05:55:00;;;;;;;13.90;4.63;;;;;16.20;96546.00;;;;8221611;28;20318;-66
2023/05/28 05:59:06;;;;;;;12.85;4.85;;;;;16.50;96551.00;;;;8225985;28;20195;-63
2023/05/28 06:03:11;;;;;;;11.00;4.95;;;;;17.00;96542.00;;;;8218021;28;20645;-64
2023/05/28 06:07:17;;;;;;;12.15;5.07;;;;;17.50;96544.00;;;;8213789;28;20293;-69
2023/05/28 06:11:30;;;;;;;12.05;4.93;;;;;17.90;96556.00;;;;8217475;28;20218;-64
2023/05/28 06:15:33;;;;;;;15.10;5.50;;;;;18.10;96554.00;;;;8206661;28;20255;-67
2023/05/28 06:19:38;;;;;;;17.08;5.40;;;;;18.10;96549.00;;;;8210306;28;20231;-63
2023/05/28 06:23:42;;;;;;;14.07;5.15;;;;;18.10;96552.00;;;;8222912;28;20218;-66
2023/05/28 06:27:45;;;;;;;11.25;4.65;;;;;18.60;96553.00;;;;8227489;28;20247;-70
2023/05/28 06:31:48;;;;;;;7.50;4.10;;;;;18.90;96547.00;;;;8211256;28;20206;-70
2023/05/28 06:35:52;;;;;;;11.98;5.07;;;;;19.10;96554.00;;;;8210553;28;20241;-70
2023/05/28 06:39:56;;;;;;;9.80;4.20;;;;;19.80;96557.00;;;;8208136;28;20215;-70
2023/05/28 06:43:59;;;;;;;13.30;4.57;;;;;20.00;96559.00;;;;8219205;28;20295;-68
2023/05/28 06:48:04;;;;;;;11.02;4.57;;;;;20.50;96550.00;;;;8212483;28;20210;-65
2023/05/28 06:52:10;;;;;;;18.33;6.00;;;;;20.50;96556.00;;;;8217171;28;20203;-67
2023/05/28 06:56:16;;;;;;;14.48;5.30;;;;;20.70;96553.00;;;;8208685;28;20231;-65
2023/05/28 07:00:22;;;;;;;14.93;5.25;;;;;21.10;96553.00;;;;8213991;28;20724;-67
2023/05/28 07:04:25;;;;;;;11.57;5.20;;;;;21.40;96550.00;;;;8215965;28;20259;-62
2023/05/28 07:08:34;;;;;;;11.77;4.72;;;;;21.70;96551.00;;;;8220512;28;20223;-65
2023/05/28 07:12:39;;;;;;;11.30;4.75;;;;;22.00;96555.00;;;;8226507;28;20295;-66
2023/05/28 07:16:45;;;;;;;15.27;4.80;;;;;22.10;96562.00;;;;8221124;28;20239;-63
2023/05/28 07:20:51;;;;;;;11.18;5.15;;;;;22.40;96572.00;;;;8222098;28;20210;-66
2023/05/28 07:24:57;;;;;;;10.40;5.00;;;;;22.70;96567.00;;;;8216067;28;20628;-62
2023/05/28 07:29:01;;;;;;;10.30;4.38;;;;;23.00;96560.00;;;;8225917;28;20210;-68
2023/05/28 07:33:06;;;;;;;12.02;5.10;;;;;23.30;96563.00;;;;8220886;28;20282;-69
2023/05/28 07:37:13;;;;;;;11.10;5.13;;;;;23.80;96567.00;;;;8220137;28;20258;-65
2023/05/28 07:41:18;;;;;;;17.98;4.63;;;;;24.40;96567.00;;;;8222815;28;20207;-68
2023/05/28 07:45:24;;;;;;;13.73;4.57;;;;;24.90;96566.00;;;;8214603;28;20199;-64
2023/05/28 07:49:29;;;;;;;11.45;4.95;;;;;25.70;96577.00;;;;8215774;28;20216;-68
2023/05/28 07:53:35;;;;;;;11.30;4.28;;;;;26.20;96573.00;;;;8200097;28;20775;-66
2023/05/28 07:57:43;;;;;;;10.77;4.93;;;;;26.50;96573.00;;;;8221678;28;20242;-64
2023/05/28 08:01:49;;;;;;;8.63;4.13;;;;;26.80;96569.00;;;;8218289;28;20658;-66
2023/05/28 08:05:52;;;;;;;10.15;4.60;;;;;26.90;96576.00;;;;8214104;28;20200;-71
2023/05/28 08:09:56;;;;;;;11.73;4.85;;;;;27.40;96582.00;;;;8195288;28;20211;-69
2023/05/28 08:14:00;;;;;;;10.20;4.38;;;;;27.70;96575.00;;;;8218822;28;20651;-62
2023/05/28 08:18:03;;;;;;;12.80;3.70;;;;;27.70;96574.00;;;;8216639;28;20894;-65
2023/05/28 08:22:07;;;;;;;12.30;4.32;;;;;28.20;96565.00;;;;8216937;28;20286;-67
2023/05/28 08:26:13;;;;;;;12.60;5.07;;;;;28.30;96567.00;;;;8218404;28;20780;-62
2023/05/28 08:30:17;;;;;;;8.45;3.75;;;;;28.40;96576.00;;;;8227946;28;20243;-68
2023/05/28 08:34:23;;;;;;;12.77;4.95;;;;;29.00;96563.00;;;;8225017;28;20235;-66
2023/05/28 08:38:28;;;;;;;9.43;4.30;;;;;29.30;96565.00;;;;8224319;28;20829;-65
2023/05/28 08:42:32;;;;;;;12.57;4.80;;;;;29.70;96563.00;;;;8212951;28;20218;-62
2023/05/28 08:46:37;;;;;;;11.18;4.68;;;;;30.30;96560.00;;;;8215862;28;20211;-65
2023/05/28 08:50:43;;;;;;;10.48;4.88;;;;;30.40;96560.00;;;;8211145;28;22088;-67
2023/05/28 08:54:47;;;;;;;15.27;4.88;;;;;30.60;96565.00;;;;8220582;28;20333;-67
2023/05/28 08:58:54;;;;;;;8.85;3.80;;;;;29.90;96559.00;;;;8217349;28;20331;-67
2023/05/28 09:03:07;;;;;;;9.65;4.38;;;;;29.10;96559.00;;;;8219562;28;20245;-70
2023/05/28 09:07:10;;;;;;;10.07;4.35;;;;;29.10;96557.00;;;;8219768;28;20212;-66
2023/05/28 09:11:14;;;;;;;13.30;4.07;;;;;28.40;96560.00;;;;8222223;28;20286;-63
2023/05/28 09:15:23;;;;;;;9.40;4.18;;;;;28.10;96547.00;;;;8221278;28;20282;-65
2023/05/28 09:19:30;;;;;;;11.93;4.43;;;;;27.70;96540.00;;;;8222135;28;20847;-68
2023/05/28 09:23:34;;;;;;;9.35;4.28;;;;;27.50;96536.00;;;;8219674;28;20862;-67
2023/05/28 09:27:37;;;;;;;11.13;4.72;;;;;27.70;96532.00;;;;8220278;28;20214;-67
2023/05/28 09:31:41;;;;;;;11.60;4.70;;;;;28.40;96531.00;;;;8218949;28;20196;-66
2023/05/28 09:35:59;;;;;;;12.27;4.40;;;;;28.70;96538.00;;;;8216405;28;20238;-65
2023/05/28 09:40:09;;;;;;;11.75;4.28;;;;;28.60;96529.00;;;;8218841;28;20783;-62
2023/05/28 09:44:12;;;;;;;12.18;3.78;;;;;29.20;96538.00;;;;8214260;28;20332;-69
2023/05/28 09:48:18;;;;;;;9.35;3.85;;;;;29.30;96542.00;;;;8214625;28;20210;-68
2023/05/28 09:52:23;;;;;;;7.25;4.53;;;;;29.10;96536.00;;;;8218019;28;20210;-69
2023/05/28 09:56:31;;;;;;;7.95;4.28;;;;;29.30;96531.00;;;;8211511;28;20236;-62
2023/05/28 10:00:42;;;;;;;12.10;4.20;;;;;29.20;96532.00;;;;8215352;28;20227;-65
2023/05/28 10:04:47;;;;;;;9.85;4.15;;;;;29.50;96525.00;;;;8214136;28;20274;-69
2023/05/28 10:08:54;;;;;;;10.23;4.55;;;;;29.60;96525.00;;;;8219598;28;20214;-78
2023/05/28 10:12:59;;;;;;;9.93;4.50;;;;;29.20;96521.00;;;;8220606;28;20234;-66
2023/05/28 10:17:09;;;;;;;9.30;5.00;;;;;28.90;96516.00;;;;8219744;28;20228;-66
2023/05/28 10:21:13;;;;;;;8.90;4.10;;;;;29.40;96516.00;;;;8214476;28;20291;-67
2023/05/28 10:25:18;;;;;;;11.32;4.43;;;;;29.50;96505.00;;;;8213666;28;20211;-69
2023/05/28 10:29:23;;;;;;;11.75;4.75;;;;;29.60;96512.00;;;;8207990;28;20206;-67
2023/05/28 10:33:28;;;;;;;8.63;4.15;;;;;29.70;96495.00;;;;8216988;28;20696;-66
2023/05/28 10:37:32;;;;;;;6.88;4.13;;;;;29.80;96508.00;;;;8216891;28;20231;-65
2023/05/28 10:41:36;;;;;;;6.50;4.25;;;;;29.50;96508.00;;;;8224309;28;20208;-64
2023/05/28 10:45:42;;;;;;;7.43;4.63;;;;;29.40;96510.00;;;;8221037;28;20554;-71
2023/05/28 10:49:59;;;;;;;7.55;4.32;;;;;29.00;96505.00;;;;8220092;28;20204;-66
2023/05/28 10:54:23;;;;;;;8.60;4.82;;;;;29.30;96492.00;;;;8221151;28;20207;-61
2023/05/28 10:58:29;;;;;;;13.77;5.10;;;;;29.80;96500.00;;;;8219133;28;20635;-66
2023/05/28 11:02:35;;;;;;;9.10;4.60;;;;;29.80;96499.00;;;;8218593;28;20235;-65
2023/05/28 11:06:41;;;;;;;7.55;4.43;;;;;29.80;96494.00;;;;8221245;28;20219;-67
2023/05/28 11:10:49;;;;;;;9.80;4.53;;;;;29.70;96487.00;;;;8228808;28;20290;-63
2023/05/28 11:14:56;;;;;;;9.88;4.55;;;;;30.00;96494.00;;;;8219456;28;20287;-62
2023/05/28 11:19:08;;;;;;;6.28;4.20;;;;;30.60;96488.00;;;;8218029;28;20882;-71
2023/05/28 11:23:15;;;;;;;8.18;5.05;;;;;30.70;96493.00;;;;8216899;28;20231;-61
2023/05/28 11:27:24;;;;;;;10.02;4.63;;;;;30.30;96478.00;;;;8218996;28;20336;-64
2023/05/28 11:31:29;;;;;;;7.82;4.53;;;;;30.60;96485.00;;;;8220024;28;20542;-62
2023/05/28 11:35:32;;;;;;;9.95;4.78;;;;;30.50;96466.00;;;;8219489;28;20885;-67
2023/05/28 11:39:35;;;;;;;7.38;4.75;;;;;31.10;96462.00;;;;8206838;28;20684;-71
2023/05/28 11:43:38;;;;;;;10.70;4.45;;;;;31.40;96468.00;;;;8214545;28;20209;-68
2023/05/28 11:47:46;;;;;;;11.00;5.10;;;;;31.40;96467.00;;;;8199539;28;20219;-68
2023/05/28 11:51:54;;;;;;;8.68;4.25;;;;;31.20;96474.00;;;;8214555;28;20203;-63
2023/05/28 11:55:59;;;;;;;8.38;4.63;;;;;31.20;96469.00;;;;8216879;28;21025;-65
2023/05/28 12:00:10;;;;;;;8.23;4.80;;;;;30.70;96465.00;;;;8217833;28;20238;-66
2023/05/28 12:04:16;;;;;;;9.02;5.00;;;;;31.30;96459.00;;;;8212255;28;20596;-65
2023/05/28 12:08:21;;;;;;;9.93;5.18;;;;;30.70;96466.00;;;;8210825;28;20685;-73
2023/05/28 12:12:30;;;;;;;9.88;4.78;;;;;30.60;96456.00;;;;8203394;28;20204;-67
2023/05/28 12:16:43;;;;;;;8.65;5.00;;;;;30.70;96464.00;;;;8204675;28;20266;-66
2023/05/28 12:20:48;;;;;;;12.45;5.20;;;;;31.10;96460.00;;;;8214922;28;20291;-67
2023/05/28 12:25:04;;;;;;;8.70;4.82;;;;;30.70;96463.00;;;;8164794;28;20669;-67
2023/05/28 12:29:11;;;;;;;7.80;4.45;;;;;30.60;96455.00;;;;1082000;28;10023551;-65
2023/05/28 12:33:15;;;;;;;10.07;4.80;;;;;31.40;96451.00;;;;6452527;28;10001026;-69
2023/05/28 12:37:21;;;;;;;9.00;4.80;;;;;31.70;96453.00;;;;8252099;28;20261;-69
2023/05/28 12:41:25;;;;;;;7.68;4.85;;;;;31.40;96445.00;;;;8238147;28;20223;-70
2023/05/28 12:45:30;;;;;;;9.05;4.57;;;;;31.10;96443.00;;;;8251192;28;20214;-64
2023/05/28 12:49:34;;;;;;;12.05;5.35;;;;;29.90;96443.00;;;;8251433;28;20290;-69
2023/05/28 12:53:40;;;;;;;10.23;4.82;;;;;29.00;96435.00;;;;8250428;28;20294;-62
2023/05/28 12:57:44;;;;;;;7.32;4.47;;;;;28.70;96430.00;;;;8240667;28;20673;-70
2023/05/28 13:01:47;;;;;;;11.02;4.82;;;;;28.30;96422.00;;;;8250591;28;20313;-66
2023/05/28 13:05:50;;;;;;;9.52;5.03;;;;;28.10;96423.00;;;;8250632;28;20210;-67
2023/05/28 13:09:57;;;;;;;8.93;4.93;;;;;28.60;96421.00;;;;8248062;28;20207;-63
2023/05/28 13:14:00;;;;;;;9.32;4.72;;;;;29.00;96414.00;;;;8246373;28;20289;-64
2023/05/28 13:18:06;;;;;;;9.93;4.88;;;;;29.80;96409.00;;;;8247394;28;20273;-65
2023/05/28 13:22:13;;;;;;;9.50;4.55;;;;;30.40;96406.00;;;;8247376;28;20483;-64
2023/05/28 13:26:18;;;;;;;7.25;4.47;;;;;31.40;96394.00;;;;8245546;28;20206;-63
2023/05/28 13:30:22;;;;;;;9.43;5.05;;;;;32.40;96400.00;;;;8239546;28;20211;-69
2023/05/28 13:34:27;;;;;;;9.60;5.10;;;;;32.40;96397.00;;;;8249823;28;20237;-66
2023/05/28 13:38:34;;;;;;;6.93;4.38;;;;;31.70;96397.00;;;;8252669;28;20263;-64
2023/05/28 13:42:42;;;;;;;8.52;4.80;;;;;31.20;96391.00;;;;8253522;28;20206;-68
2023/05/28 13:46:45;;;;;;;7.65;4.50;;;;;31.30;96391.00;;;;8258820;28;20206;-60
2023/05/28 13:50:48;;;;;;;8.38;4.40;;;;;31.90;96393.00;;;;8245849;28;21876;-69
2023/05/28 13:54:53;;;;;;;10.65;4.50;;;;;31.40;96382.00;;;;8236201;28;20946;-70
2023/05/28 13:58:57;;;;;;;8.15;4.85;;;;;30.70;96381.00;;;;8250274;28;20261;-64
2023/05/28 14:03:05;;;;;;;10.30;4.32;;;;;30.70;96374.00;;;;8256707;28;20237;-61
2023/05/28 14:07:11;;;;;;;8.88;5.03;;;;;30.80;96375.00;;;;8252342;28;20254;-62
2023/05/28 14:11:14;;;;;;;7.05;4.25;;;;;31.10;96370.00;;;;8255268;28;20205;-65
2023/05/28 14:15:22;;;;;;;8.40;4.53;;;;;30.30;96370.00;;;;8237855;28;20207;-66
2023/05/28 14:19:25;;;;;;;9.45;4.70;;;;;30.10;96359.00;;;;8260333;28;20226;-64
2023/05/28 14:23:29;;;;;;;13.48;4.57;;;;;30.20;96365.00;;;;8263331;28;20328;-69
2023/05/28 14:27:35;;;;;;;7.45;4.32;;;;;30.20;96356.00;;;;8257410;28;20871;-65
2023/05/28 14:31:45;;;;;;;7.63;4.20;;;;;30.10;96355.00;;;;8240318;28;20207;-66
2023/05/28 14:35:48;;;;;;;11.35;4.88;;;;;30.10;96348.00;;;;8252531;28;20571;-66
2023/05/28 14:39:52;;;;;;;7.03;4.82;;;;;30.20;96351.00;;;;8250918;28;20896;-66
2023/05/28 14:43:57;;;;;;;8.35;5.05;;;;;29.80;96346.00;;;;8254851;28;20203;-63
2023/05/28 14:48:02;;;;;;;11.15;4.90;;;;;29.80;96341.00;;;;8255188;28;20302;-64
2023/05/28 14:52:30;;;;;;;6.22;4.57;;;;;29.80;96341.00;;;;8247271;28;20234;-70
2023/05/28 14:56:36;;;;;;;11.77;4.65;;;;;30.10;96351.00;;;;8243266;28;20242;-64
2023/05/28 15:00:41;;;;;;;5.68;4.78;;;;;30.10;96352.00;;;;8252125;28;20209;-63
2023/05/28 15:04:49;;;;;;;8.60;4.60;;;;;30.00;96347.00;;;;8251837;28;20230;-66
2023/05/28 15:08:52;;;;;;;7.55;4.50;;;;;29.80;96342.00;;;;8246231;28;20345;-68
2023/05/28 15:12:57;;;;;;;10.80;4.50;;;;;29.50;96345.00;;;;8248698;28;20239;-63
2023/05/28 15:17:00;;;;;;;8.43;4.75;;;;;29.40;96340.00;;;;8245311;28;20680;-68
2023/05/28 15:21:05;;;;;;;11.55;5.15;;;;;29.50;96347.00;;;;8243874;28;20233;-67
2023/05/28 15:25:10;;;;;;;14.35;4.43;;;;;29.40;96345.00;;;;8247563;28;20759;-67
2023/05/28 15:29:17;;;;;;;7.63;3.92;;;;;29.30;96347.00;;;;8243110;28;20676;-66
2023/05/28 15:33:22;;;;;;;6.18;4.05;;;;;29.30;96343.00;;;;8251653;28;20211;-66
2023/05/28 15:37:28;;;;;;;7.60;4.10;;;;;29.50;96333.00;;;;8248733;28;20223;-61
2023/05/28 15:41:35;;;;;;;8.52;4.35;;;;;29.70;96326.00;;;;8248655;28;20701;-65
2023/05/28 15:45:43;;;;;;;6.97;3.90;;;;;29.60;96329.00;;;;8249582;28;20195;-64
2023/05/28 15:49:48;;;;;;;9.88;4.32;;;;;29.50;96326.00;;;;8248528;28;20211;-65
2023/05/28 15:53:54;;;;;;;7.95;3.60;;;;;29.20;96324.00;;;;8246647;28;20736;-65
2023/05/28 15:58:01;;;;;;;7.70;4.18;;;;;29.10;96327.00;;;;8262928;28;20267;-63
2023/05/28 16:02:05;;;;;;;6.50;3.92;;;;;29.20;96321.00;;;;8238324;28;20259;-65
2023/05/28 16:06:10;;;;;;;6.35;3.70;;;;;29.20;96325.00;;;;8243731;28;20703;-63
2023/05/28 16:10:15;;;;;;;12.10;4.07;;;;;29.00;96325.00;;;;8247708;28;20199;-62
2023/05/28 16:14:21;;;;;;;7.55;3.97;;;;;28.80;96328.00;;;;8246034;28;20630;-66
2023/05/28 16:18:28;;;;;;;7.22;3.58;;;;;28.70;96323.00;;;;8250870;28;20261;-63
2023/05/28 16:22:34;;;;;;;8.23;4.53;;;;;28.70;96325.00;;;;8248926;28;20246;-64
2023/05/28 16:26:39;;;;;;;6.60;3.55;;;;;28.60;96326.00;;;;8246960;28;20289;-65
2023/05/28 16:30:46;;;;;;;7.57;3.88;;;;;28.70;96319.00;;;;8240689;28;20203;-68
2023/05/28 16:34:50;;;;;;;5.95;3.80;;;;;28.90;96305.00;;;;8235604;28;20257;-64
2023/05/28 16:38:55;;;;;;;6.90;3.58;;;;;28.90;96312.00;;;;8248152;28;20751;-65
2023/05/28 16:43:17;;;;;;;8.65;4.03;;;;;28.70;96312.00;;;;8250274;28;20248;-65
2023/05/28 16:47:26;;;;;;;6.05;3.72;;;;;28.50;96309.00;;;;8250650;28;20899;-65
2023/05/28 16:51:32;;;;;;;4.95;3.40;;;;;28.60;96324.00;;;;8249314;28;20257;-68
2023/05/28 16:55:38;;;;;;;5.65;3.88;;;;;28.80;96316.00;;;;8255628;28;20202;-65
2023/05/28 16:59:43;;;;;;;4.40;3.42;;;;;28.90;96325.00;;;;8247898;28;20232;-64
2023/05/28 17:03:46;;;;;;;7.25;3.90;;;;;29.00;96325.00;;;;8238145;28;20234;-63
2023/05/28 17:07:50;;;;;;;5.75;3.85;;;;;28.60;96320.00;;;;8252524;28;20274;-64
2023/05/28 17:11:56;;;;;;;8.60;3.60;;;;;28.40;96334.00;;;;8225489;28;21576;-61
2023/05/28 17:16:03;;;;;;;13.73;3.50;;;;;28.50;96321.00;;;;8254654;28;20753;-65
2023/05/28 17:20:08;;;;;;;10.13;3.65;;;;;28.50;96331.00;;;;8256149;28;20688;-62
2023/05/28 17:24:12;;;;;;;8.93;3.45;;;;;28.30;96340.00;;;;8245443;28;20764;-63
2023/05/28 17:28:17;;;;;;;12.48;3.78;;;;;28.20;96335.00;;;;8254957;28;20563;-68
2023/05/28 17:32:23;;;;;;;6.05;3.65;;;;;28.40;96336.00;;;;8263486;28;20301;-66
2023/05/28 17:36:28;;;;;;;5.68;3.60;;;;;28.60;96341.00;;;;8269581;28;20206;-64
2023/05/28 17:40:31;;;;;;;10.95;4.20;;;;;28.70;96340.00;;;;8259690;28;20682;-66
2023/05/28 17:44:35;;;;;;;7.50;3.95;;;;;28.70;96341.00;;;;8271647;28;20205;-65
2023/05/28 17:48:39;;;;;;;5.32;3.60;;;;;28.60;96339.00;;;;8269217;28;20380;-66
2023/05/28 17:52:42;;;;;;;4.13;3.40;;;;;28.40;96334.00;;;;8268756;28;20621;-64
2023/05/28 17:56:48;;;;;;;7.30;3.20;;;;;27.70;96340.00;;;;8254970;28;20293;-63
2023/05/28 18:00:51;;;;;;;5.70;3.47;;;;;26.70;96344.00;;;;8252828;28;20807;-71
2023/05/28 18:04:56;;;;;;;5.95;3.70;;;;;26.00;96348.00;;;;8248770;28;20246;-64
2023/05/28 18:09:04;;;;;;;4.57;3.58;;;;;25.30;96345.00;;;;8261313;28;20302;-66
2023/05/28 18:13:07;;;;;;;5.75;3.40;;;;;24.80;96355.00;;;;8256030;28;20318;-64
2023/05/28 18:17:22;;;;;;;7.20;3.53;;;;;24.40;96348.00;;;;8240437;28;20656;-66
2023/05/28 18:21:32;;;;;;;4.93;3.72;;;;;23.90;96353.00;;;;8253245;28;20254;-61
2023/05/28 18:25:37;;;;;;;5.20;3.30;;;;;23.60;96354.00;;;;8254877;28;20309;-62
2023/05/28 18:29:43;;;;;;;5.47;3.40;;;;;23.30;96351.00;;;;8254007;28;20211;-68
2023/05/28 18:33:46;;;;;;;6.88;3.55;;;;;23.00;96358.00;;;;8253387;28;20207;-65
2023/05/28 18:37:53;;;;;;;9.88;3.80;;;;;22.80;96353.00;;;;8253407;28;20304;-64
2023/05/28 18:41:56;;;;;;;7.75;3.35;;;;;22.50;96354.00;;;;8255680;28;20199;-69
2023/05/28 18:46:02;;;;;;;7.00;3.42;;;;;22.20;96358.00;;;;8252669;28;20215;-68
2023/05/28 18:50:10;;;;;;;5.70;3.55;;;;;21.90;96365.00;;;;8252887;28;20214;-62
2023/05/28 18:54:15;;;;;;;6.53;3.78;;;;;21.40;96359.00;;;;8254217;28;20215;-66
2023/05/28 18:58:21;;;;;;;5.93;3.63;;;;;20.90;96361.00;;;;8253548;28;20233;-67
2023/05/28 19:02:25;;;;;;;7.07;3.47;;;;;20.50;96374.00;;;;8253713;28;20338;-62
2023/05/28 19:06:33;;;;;;;7.13;3.80;;;;;20.10;96368.00;;;;8254543;28;20202;-66
2023/05/28 19:10:40;;;;;;;7.70;3.58;;;;;19.70;96368.00;;;;8238169;28;20215;-65
2023/05/28 19:14:44;;;;;;;6.45;3.30;;;;;19.20;96373.00;;;;8254643;28;20209;-63
2023/05/28 19:18:57;;;;;;;8.43;3.80;;;;;18.90;96365.00;;;;8260822;28;20215;-64
2023/05/28 19:23:01;;;;;;;13.43;3.97;;;;;18.70;96378.00;;;;8263773;28;20290;-64
2023/05/28 19:27:06;;;;;;;4.43;3.38;;;;;18.40;96370.00;;;;8251483;28;20207;-63
2023/05/28 19:31:11;;;;;;;8.23;4.20;;;;;18.00;96373.00;;;;8250599;28;20235;-64
2023/05/28 19:35:16;;;;;;;6.00;3.50;;;;;17.60;96383.00;;;;8262906;28;20290;-64
2023/05/28 19:39:24;;;;;;;6.88;3.67;;;;;17.30;96381.00;;;;8250881;28;20688;-64
2023/05/28 19:43:31;;;;;;;5.13;3.60;;;;;16.90;96383.00;;;;8253090;28;20238;-68
2023/05/28 19:47:34;;;;;;;27.70;12.93;;;;;16.70;96388.00;;;;8251349;28;20233;-63
2023/05/28 19:51:37;;;;;;;11.15;5.57;;;;;16.60;96384.00;;;;8253825;28;20254;-69
2023/05/28 19:55:46;;;;;;;12.35;5.40;;;;;16.50;96386.00;;;;8258913;28;20854;-62
2023/05/28 19:59:52;;;;;;;9.02;4.75;;;;;16.30;96389.00;;;;8252130;28;20773;-63
2023/05/28 20:04:01;;;;;;;9.65;4.68;;;;;16.10;96387.00;;;;8246936;28;20239;-64
2023/05/28 20:08:05;;;;;;;10.05;3.90;;;;;16.00;96383.00;;;;8250953;28;20225;-64
2023/05/28 20:12:13;;;;;;;11.30;3.90;;;;;15.90;96395.00;;;;8253056;28;20310;-65
2023/05/28 20:16:22;;;;;;;6.85;3.80;;;;;15.80;96393.00;;;;8247077;28;20403;-64
2023/05/28 20:20:25;;;;;;;7.90;4.05;;;;;15.80;96398.00;;;;8250032;28;20285;-67
2023/05/28 20:24:38;;;;;;;10.27;3.90;;;;;15.80;96393.00;;;;8250748;28;20277;-64